createdAt,value
2018-06-16T00:00:03.353Z,18.60
2018-06-16T00:04:59.835Z,18.40
2018-06-16T00:07:28.216Z,18.40
2018-06-16T00:09:56.553Z,18.30
2018-06-16T00:12:24.929Z,18.20
2018-06-16T00:14:53.310Z,18.20
2018-06-16T00:17:21.661Z,18.10
2018-06-16T00:19:50.075Z,18.00
2018-06-16T00:22:18.439Z,18.00
2018-06-16T00:24:46.918Z,18.00
2018-06-16T00:27:15.245Z,17.90
2018-06-16T00:29:43.567Z,17.90
2018-06-16T00:32:11.929Z,17.90
2018-06-16T00:34:40.260Z,17.90
2018-06-16T00:39:36.893Z,17.80
2018-06-16T00:42:05.216Z,17.70
2018-06-16T00:44:33.555Z,17.70
2018-06-16T00:47:01.883Z,17.60
2018-06-16T00:49:30.193Z,17.60
2018-06-16T00:51:58.573Z,17.60
2018-06-16T00:54:26.969Z,17.50
2018-06-16T00:57:06.673Z,17.50
2018-06-16T00:59:35.026Z,17.50
2018-06-16T01:02:03.356Z,17.40
2018-06-16T01:04:31.665Z,17.40
2018-06-16T01:07:00.035Z,17.30
2018-06-16T01:09:28.465Z,17.20
2018-06-16T01:11:56.777Z,17.10
2018-06-16T01:14:25.083Z,17.10
2018-06-16T01:16:53.425Z,17.10
2018-06-16T01:19:21.770Z,17.00
2018-06-16T01:21:50.115Z,17.00
2018-06-16T01:26:46.425Z,17.00
2018-06-16T01:29:14.774Z,16.90
2018-06-16T01:31:43.086Z,16.90
2018-06-16T01:34:11.360Z,16.80
2018-06-16T01:36:39.650Z,16.70
2018-06-16T01:39:09.206Z,16.60
2018-06-16T01:41:37.996Z,16.60
2018-06-16T01:44:06.316Z,16.60
2018-06-16T01:46:34.629Z,16.60
2018-06-16T01:49:03.037Z,16.60
2018-06-16T01:51:31.388Z,16.60
2018-06-16T01:56:27.868Z,16.60
2018-06-16T01:58:56.193Z,16.60
2018-06-16T02:01:24.529Z,16.60
2018-06-16T02:03:52.856Z,16.50
2018-06-16T02:06:21.202Z,16.50
2018-06-16T02:08:49.504Z,16.50
2018-06-16T02:11:17.794Z,16.50
2018-06-16T02:13:46.128Z,16.50
2018-06-16T02:18:42.551Z,16.50
2018-06-16T02:21:10.877Z,16.40
2018-06-16T02:23:39.216Z,16.40
2018-06-16T02:26:07.588Z,16.40
2018-06-16T02:28:35.928Z,16.40
2018-06-16T02:31:04.330Z,16.40
2018-06-16T02:33:32.636Z,16.40
2018-06-16T02:36:00.955Z,16.40
2018-06-16T02:38:29.273Z,16.30
2018-06-16T02:40:57.601Z,16.30
2018-06-16T02:43:25.918Z,16.30
2018-06-16T02:45:54.190Z,16.30
2018-06-16T02:48:22.505Z,16.30
2018-06-16T02:50:50.810Z,16.20
2018-06-16T02:53:19.137Z,16.20
2018-06-16T02:58:15.506Z,16.20
2018-06-16T03:00:43.809Z,16.20
2018-06-16T03:03:12.135Z,16.10
2018-06-16T03:05:40.513Z,16.10
2018-06-16T03:08:08.824Z,16.10
2018-06-16T03:10:37.134Z,16.00
2018-06-16T03:13:05.529Z,16.00
2018-06-16T03:15:33.843Z,16.00
2018-06-16T03:18:02.274Z,16.00
2018-06-16T03:20:30.569Z,16.00
2018-06-16T03:22:58.877Z,16.00
2018-06-16T03:25:27.357Z,16.00
2018-06-16T03:27:55.671Z,16.10
2018-06-16T03:30:23.949Z,16.10
2018-06-16T03:32:52.390Z,16.10
2018-06-16T03:35:20.733Z,16.10
2018-06-16T03:37:49.038Z,16.10
2018-06-16T03:40:17.366Z,16.10
2018-06-16T03:42:45.693Z,16.10
2018-06-16T03:45:14.038Z,16.10
2018-06-16T03:47:42.424Z,16.10
2018-06-16T03:50:10.719Z,16.10
2018-06-16T03:52:39.246Z,16.10
2018-06-16T03:55:07.589Z,16.10
2018-06-16T03:57:35.929Z,16.20
2018-06-16T04:00:04.413Z,16.10
2018-06-16T04:02:32.761Z,16.20
2018-06-16T04:05:01.117Z,16.20
2018-06-16T04:09:57.468Z,16.20
2018-06-16T04:12:25.767Z,16.30
2018-06-16T04:14:54.084Z,16.30
2018-06-16T04:17:22.417Z,16.40
2018-06-16T04:19:51.710Z,16.40
2018-06-16T04:22:20.390Z,16.40
2018-06-16T04:24:48.688Z,16.50
2018-06-16T04:27:16.981Z,16.50
2018-06-16T04:29:45.307Z,16.60
2018-06-16T04:32:13.714Z,16.60
2018-06-16T04:34:42.069Z,16.70
2018-06-16T04:37:10.333Z,16.60
2018-06-16T04:39:38.620Z,16.70
2018-06-16T04:42:06.933Z,16.70
2018-06-16T04:44:35.261Z,16.80
2018-06-16T04:47:04.093Z,16.80
2018-06-16T04:49:32.404Z,16.90
2018-06-16T04:52:00.746Z,17.00
2018-06-16T04:54:29.028Z,17.20
2018-06-16T04:56:57.330Z,17.20
2018-06-16T04:59:25.594Z,17.40
2018-06-16T05:01:53.903Z,17.40
2018-06-16T05:04:22.197Z,17.40
2018-06-16T05:06:50.529Z,17.40
2018-06-16T05:09:18.828Z,17.60
2018-06-16T05:11:47.138Z,17.60
2018-06-16T05:14:15.423Z,17.60
2018-06-16T05:19:11.746Z,17.50
2018-06-16T05:21:40.066Z,17.50
2018-06-16T05:24:08.360Z,17.60
2018-06-16T05:26:36.666Z,17.60
2018-06-16T05:29:05.025Z,17.80
2018-06-16T05:31:33.309Z,17.90
2018-06-16T05:34:01.603Z,17.90
2018-06-16T05:36:29.911Z,17.90
2018-06-16T05:38:58.221Z,17.80
2018-06-16T05:41:26.557Z,17.80
2018-06-16T05:43:54.877Z,18.00
2018-06-16T05:46:23.241Z,18.10
2018-06-16T05:48:51.529Z,18.00
2018-06-16T05:51:20.023Z,18.00
2018-06-16T05:53:48.313Z,18.00
2018-06-16T05:56:17.221Z,18.20
2018-06-16T05:58:45.509Z,18.40
2018-06-16T06:01:14.649Z,18.50
2018-06-16T06:03:43.107Z,18.80
2018-06-16T06:06:11.442Z,18.90
2018-06-16T06:08:39.720Z,19.10
2018-06-16T06:11:08.058Z,19.20
2018-06-16T06:13:36.346Z,19.40
2018-06-16T06:16:04.649Z,19.50
2018-06-16T06:18:32.945Z,19.60
2018-06-16T06:21:01.256Z,19.60
2018-06-16T06:23:29.578Z,19.50
2018-06-16T06:25:57.879Z,19.50
2018-06-16T06:28:26.172Z,19.40
2018-06-16T06:30:54.502Z,19.50
2018-06-16T06:33:22.793Z,19.60
2018-06-16T06:35:51.116Z,19.50
2018-06-16T06:40:47.445Z,19.80
2018-06-16T06:43:15.771Z,19.70
2018-06-16T06:45:44.061Z,19.70
2018-06-16T06:48:12.433Z,19.90
2018-06-16T06:50:40.914Z,20.10
2018-06-16T06:53:09.251Z,20.10
2018-06-16T06:55:37.728Z,20.10
2018-06-16T06:58:06.114Z,20.10
2018-06-16T07:00:35.114Z,20.00
2018-06-16T07:03:03.458Z,20.10
2018-06-16T07:05:31.848Z,20.20
2018-06-16T07:08:00.197Z,20.30
2018-06-16T07:10:28.512Z,20.30
2018-06-16T07:12:56.841Z,20.40
2018-06-16T07:15:25.173Z,20.30
2018-06-16T07:17:53.509Z,20.40
2018-06-16T07:20:21.838Z,20.60
2018-06-16T07:22:50.138Z,20.90
2018-06-16T07:25:18.455Z,20.90
2018-06-16T07:27:46.793Z,20.90
2018-06-16T07:30:15.139Z,20.90
2018-06-16T07:32:43.481Z,21.10
2018-06-16T07:35:11.810Z,21.20
2018-06-16T07:37:40.151Z,21.30
2018-06-16T07:40:08.449Z,21.50
2018-06-16T07:42:36.806Z,21.50
2018-06-16T07:45:05.696Z,21.40
2018-06-16T07:47:34.014Z,21.40
2018-06-16T07:50:02.425Z,21.60
2018-06-16T07:52:30.816Z,21.60
2018-06-16T07:54:59.370Z,22.00
2018-06-16T07:57:27.691Z,22.20
2018-06-16T07:59:55.999Z,21.90
2018-06-16T08:02:24.368Z,22.10
2018-06-16T08:04:52.684Z,22.30
2018-06-16T08:07:21.196Z,22.60
2018-06-16T08:09:49.525Z,22.90
2018-06-16T08:12:17.843Z,22.90
2018-06-16T08:14:46.222Z,23.10
2018-06-16T08:17:14.531Z,23.00
2018-06-16T08:19:42.931Z,22.90
2018-06-16T08:22:11.245Z,22.90
2018-06-16T08:24:39.595Z,23.10
2018-06-16T08:27:07.963Z,23.20
2018-06-16T08:29:36.318Z,23.40
2018-06-16T08:32:04.720Z,23.40
2018-06-16T08:34:33.038Z,23.40
2018-06-16T08:37:01.343Z,23.60
2018-06-16T08:39:29.696Z,23.50
2018-06-16T08:41:58.099Z,23.30
2018-06-16T08:44:26.409Z,22.90
2018-06-16T08:46:54.733Z,23.10
2018-06-16T08:49:23.202Z,23.30
2018-06-16T08:51:51.605Z,23.20
2018-06-16T08:54:19.898Z,23.60
2018-06-16T08:56:48.226Z,23.50
2018-06-16T08:59:16.569Z,23.30
2018-06-16T09:01:44.881Z,23.30
2018-06-16T09:04:13.204Z,23.60
2018-06-16T09:06:41.502Z,23.90
2018-06-16T09:09:10.486Z,23.60
2018-06-16T09:11:39.018Z,23.70
2018-06-16T09:14:07.633Z,24.00
2018-06-16T09:16:37.311Z,24.40
2018-06-16T09:19:05.825Z,24.40
2018-06-16T09:21:34.152Z,24.40
2018-06-16T09:24:02.493Z,24.30
2018-06-16T09:26:30.828Z,24.30
2018-06-16T09:29:00.565Z,24.20
2018-06-16T09:31:29.046Z,24.30
2018-06-16T09:33:58.670Z,24.70
2018-06-16T09:36:27.083Z,25.00
2018-06-16T09:38:55.493Z,24.80
2018-06-16T09:41:24.301Z,25.00
2018-06-16T09:43:52.609Z,25.10
2018-06-16T09:46:21.008Z,25.20
2018-06-16T09:48:49.333Z,25.20
2018-06-16T09:51:17.630Z,25.10
2018-06-16T09:53:45.939Z,25.20
2018-06-16T09:56:14.237Z,25.20
2018-06-16T09:58:42.581Z,25.20
2018-06-16T10:01:10.914Z,25.40
2018-06-16T10:03:39.218Z,25.50
2018-06-16T10:06:07.566Z,25.40
2018-06-16T10:08:35.907Z,25.30
2018-06-16T10:11:04.293Z,25.40
2018-06-16T10:13:32.946Z,26.10
2018-06-16T10:16:01.388Z,26.10
2018-06-16T10:18:29.695Z,26.60
2018-06-16T10:20:57.995Z,26.20
2018-06-16T10:23:26.474Z,26.10
2018-06-16T10:25:54.780Z,26.00
2018-06-16T10:28:23.872Z,26.10
2018-06-16T10:30:52.200Z,26.50
2018-06-16T10:33:21.470Z,27.10
2018-06-16T10:35:49.938Z,26.80
2018-06-16T10:38:18.879Z,26.10
2018-06-16T10:40:47.262Z,26.40
2018-06-16T10:43:15.785Z,26.20
2018-06-16T10:45:44.312Z,26.10
2018-06-16T10:48:12.811Z,26.00
2018-06-16T10:50:41.128Z,26.70
2018-06-16T10:53:09.759Z,26.00
2018-06-16T10:55:38.201Z,25.60
2018-06-16T10:58:06.658Z,25.90
2018-06-16T11:00:41.546Z,25.70
2018-06-16T11:03:09.849Z,25.80
2018-06-16T11:05:38.288Z,25.60
2018-06-16T11:08:06.793Z,26.10
2018-06-16T11:10:35.237Z,26.50
2018-06-16T11:13:03.666Z,26.20
2018-06-16T11:15:32.082Z,27.10
2018-06-16T11:18:00.429Z,27.30
2018-06-16T11:20:28.798Z,27.50
2018-06-16T11:22:57.141Z,27.60
2018-06-16T11:25:25.495Z,27.20
2018-06-16T11:27:53.890Z,27.10
2018-06-16T11:30:22.254Z,26.40
2018-06-16T11:32:50.569Z,26.20
2018-06-16T11:35:18.895Z,26.00
2018-06-16T11:37:47.309Z,26.00
2018-06-16T11:40:15.828Z,26.20
2018-06-16T11:42:44.162Z,26.40
2018-06-16T11:45:12.532Z,26.60
2018-06-16T11:47:40.845Z,27.10
2018-06-16T11:50:09.141Z,27.30
2018-06-16T11:52:37.477Z,27.50
2018-06-16T11:55:05.864Z,27.70
2018-06-16T11:57:34.296Z,27.50
2018-06-16T12:00:02.581Z,27.60
2018-06-16T12:02:30.902Z,27.30
2018-06-16T12:04:59.210Z,27.50
2018-06-16T12:07:27.687Z,27.30
2018-06-16T12:09:56.037Z,27.30
2018-06-16T12:12:24.325Z,27.70
2018-06-16T12:14:52.878Z,28.20
2018-06-16T12:17:21.265Z,27.80
2018-06-16T12:19:49.754Z,27.60
2018-06-16T12:22:18.221Z,27.80
2018-06-16T12:24:46.600Z,28.40
2018-06-16T12:27:14.917Z,28.70
2018-06-16T12:29:43.310Z,28.10
2018-06-16T12:32:11.562Z,28.20
2018-06-16T12:37:08.213Z,27.50
2018-06-16T12:39:36.505Z,27.80
2018-06-16T12:42:04.969Z,28.30
2018-06-16T12:44:33.297Z,28.60
2018-06-16T12:47:01.612Z,28.90
2018-06-16T12:49:29.913Z,29.00
2018-06-16T12:51:58.245Z,28.50
2018-06-16T12:54:26.561Z,27.60
2018-06-16T12:56:54.873Z,27.30
2018-06-16T12:59:23.149Z,26.80
2018-06-16T13:01:51.557Z,26.40
2018-06-16T13:04:19.853Z,26.00
2018-06-16T13:06:48.193Z,26.20
2018-06-16T13:09:16.653Z,26.20
2018-06-16T13:11:45.014Z,26.00
2018-06-16T13:14:13.410Z,25.80
2018-06-16T13:16:41.769Z,25.80
2018-06-16T13:19:10.084Z,25.50
2018-06-16T13:21:38.440Z,25.40
2018-06-16T13:26:34.836Z,25.30
2018-06-16T13:29:03.149Z,25.30
2018-06-16T13:31:31.437Z,25.50
2018-06-16T13:33:59.757Z,25.70
2018-06-16T13:36:28.165Z,25.90
2018-06-16T13:38:56.508Z,26.20
2018-06-16T13:41:24.943Z,26.40
2018-06-16T13:43:53.234Z,26.40
2018-06-16T13:46:21.519Z,25.60
2018-06-16T13:48:49.926Z,25.30
2018-06-16T13:51:18.265Z,25.20
2018-06-16T13:53:46.655Z,25.30
2018-06-16T13:56:15.009Z,25.50
2018-06-16T13:58:43.939Z,25.50
2018-06-16T14:01:12.694Z,25.50
2018-06-16T14:03:40.980Z,25.70
2018-06-16T14:06:09.344Z,25.80
2018-06-16T14:08:37.804Z,25.90
2018-06-16T14:11:06.364Z,26.20
2018-06-16T14:13:35.221Z,26.60
2018-06-16T14:16:03.725Z,26.70
2018-06-16T14:18:31.985Z,27.00
2018-06-16T14:21:00.480Z,28.40
2018-06-16T14:23:28.852Z,28.30
2018-06-16T14:25:57.208Z,27.80
2018-06-16T14:28:25.678Z,27.40
2018-06-16T14:30:54.085Z,27.20
2018-06-16T14:33:22.537Z,27.90
2018-06-16T14:35:50.970Z,28.10
2018-06-16T14:38:19.370Z,28.10
2018-06-16T14:40:47.786Z,27.60
2018-06-16T14:43:16.181Z,27.50
2018-06-16T14:45:44.585Z,27.60
2018-06-16T14:48:13.215Z,27.80
2018-06-16T14:50:41.584Z,28.50
2018-06-16T14:53:11.544Z,29.60
2018-06-16T14:55:39.857Z,31.20
2018-06-16T14:58:09.858Z,32.20
2018-06-16T15:00:38.185Z,32.60
2018-06-16T15:03:06.640Z,32.50
2018-06-16T15:05:35.081Z,31.70
2018-06-16T15:08:03.387Z,31.80
2018-06-16T15:10:31.856Z,31.60
2018-06-16T15:13:00.121Z,31.80
2018-06-16T15:15:28.518Z,31.60
2018-06-16T15:17:56.881Z,30.90
2018-06-16T15:20:25.214Z,30.20
2018-06-16T15:22:53.537Z,30.50
2018-06-16T15:25:21.853Z,31.00
2018-06-16T15:27:50.372Z,32.00
2018-06-16T15:30:18.931Z,32.50
2018-06-16T15:32:47.266Z,32.30
2018-06-16T15:35:16.687Z,31.90
2018-06-16T15:37:44.997Z,31.90
2018-06-16T15:40:13.431Z,32.00
2018-06-16T15:42:41.777Z,32.10
2018-06-16T15:45:10.153Z,30.80
2018-06-16T15:47:38.663Z,29.90
2018-06-16T15:50:07.126Z,29.40
2018-06-16T15:52:35.485Z,28.80
2018-06-16T15:55:04.007Z,28.00
2018-06-16T15:57:32.290Z,27.70
2018-06-16T16:00:00.637Z,26.90
2018-06-16T16:02:29.001Z,26.10
2018-06-16T16:04:57.305Z,25.80
2018-06-16T16:07:31.757Z,25.60
2018-06-16T16:10:00.687Z,25.60
2018-06-16T16:12:39.191Z,25.40
2018-06-16T16:15:08.232Z,25.50
2018-06-16T16:17:38.389Z,25.30
2018-06-16T16:20:12.226Z,24.60
2018-06-16T16:22:43.542Z,23.60
2018-06-16T16:25:12.548Z,22.70
2018-06-16T16:27:41.207Z,22.20
2018-06-16T16:30:10.060Z,21.50
2018-06-16T16:32:53.488Z,20.80
2018-06-16T16:35:49.377Z,20.50
2018-06-16T16:41:20.731Z,20.40
2018-06-16T16:43:49.130Z,20.40
2018-06-16T16:46:17.672Z,20.30
2018-06-16T16:48:46.120Z,20.30
2018-06-16T16:51:14.735Z,20.30
2018-06-16T16:53:43.173Z,20.50
2018-06-16T16:56:11.998Z,20.50
2018-06-16T16:58:40.601Z,20.50
2018-06-16T17:01:10.373Z,20.70
2018-06-16T17:03:39.332Z,20.80
2018-06-16T17:45:42.808Z,22.10
2018-06-16T17:48:11.434Z,21.60
2018-06-16T17:50:41.016Z,21.60
2018-06-16T17:53:09.817Z,21.50
2018-06-16T17:55:38.325Z,21.30
2018-06-16T17:58:06.878Z,21.10
2018-06-16T18:00:35.265Z,20.90
2018-06-16T18:03:03.805Z,20.70
2018-06-16T18:05:32.368Z,20.80
2018-06-16T18:08:01.109Z,20.90
2018-06-16T18:10:29.463Z,20.70
2018-06-16T18:12:58.240Z,20.60
2018-06-16T18:15:26.822Z,20.30
2018-06-16T18:17:55.150Z,20.20
2018-06-16T18:20:23.595Z,20.20
2018-06-16T18:22:51.940Z,19.90
2018-06-16T18:25:20.827Z,19.80
2018-06-16T18:27:50.046Z,19.60
2018-06-16T18:30:18.861Z,19.50
2018-06-16T18:32:47.223Z,19.50
2018-06-16T18:35:16.799Z,19.50
2018-06-16T18:37:45.529Z,19.50
2018-06-16T18:40:14.277Z,19.50
2018-06-16T18:42:44.161Z,19.40
2018-06-16T18:45:14.080Z,19.30
2018-06-16T18:47:43.362Z,19.20
2018-06-16T18:50:12.422Z,19.20
2018-06-16T18:52:43.649Z,19.10
2018-06-16T18:57:49.501Z,19.10
2018-06-16T19:08:09.352Z,19.20
2018-06-16T19:10:40.691Z,19.20
2018-06-16T19:13:24.056Z,19.20
2018-06-16T19:16:06.655Z,19.20
2018-06-16T19:18:41.547Z,19.20
2018-06-16T19:21:16.122Z,19.10
2018-06-16T19:23:46.070Z,19.10
2018-06-16T19:26:23.353Z,19.10
2018-06-16T19:28:53.511Z,19.10
2018-06-16T19:31:23.597Z,19.10
2018-06-16T19:33:58.661Z,19.10
2018-06-16T19:36:29.065Z,19.00
2018-06-16T19:39:01.061Z,19.10
2018-06-16T19:41:36.712Z,19.00
2018-06-16T19:44:09.868Z,19.00
2018-06-16T19:46:39.635Z,19.00
2018-06-16T19:49:14.509Z,18.90
2018-06-16T19:51:46.131Z,18.90
2018-06-16T19:54:17.974Z,18.90
2018-06-16T19:56:53.988Z,18.90
2018-06-16T19:59:23.485Z,18.90
2018-06-16T20:02:02.149Z,18.90
2018-06-16T20:04:33.205Z,18.80
2018-06-16T20:09:41.501Z,18.90
2018-06-16T20:12:10.166Z,18.80
2018-06-16T20:14:38.874Z,18.90
2018-06-16T20:17:07.476Z,18.90
2018-06-16T20:19:41.844Z,18.80
2018-06-16T20:22:14.465Z,18.90
2018-06-16T20:24:43.466Z,18.80
2018-06-16T20:27:14.090Z,18.70
2018-06-16T20:29:44.645Z,18.70
2018-06-16T20:34:50.768Z,18.70
2018-06-16T20:37:23.005Z,18.60
2018-06-16T20:39:54.847Z,18.60
2018-06-16T20:42:24.133Z,18.60
2018-06-16T20:44:52.852Z,18.50
2018-06-16T20:47:21.309Z,18.60
2018-06-16T20:49:50.121Z,18.60
2018-06-16T20:52:18.950Z,18.50
2018-06-16T20:54:50.522Z,18.40
2018-06-16T20:57:20.280Z,18.40
2018-06-16T20:59:49.015Z,18.40
2018-06-16T21:02:19.656Z,18.40
2018-06-16T21:04:53.452Z,18.50
2018-06-16T21:07:22.859Z,18.60
2018-06-16T21:09:52.583Z,18.60
2018-06-16T21:12:22.287Z,18.60
2018-06-16T21:14:59.874Z,18.50
2018-06-16T21:17:35.866Z,18.40
2018-06-16T21:20:09.845Z,18.40
2018-06-16T21:22:39.545Z,18.30
2018-06-16T21:25:09.015Z,18.10
2018-06-16T21:27:39.376Z,18.20
2018-06-16T21:30:08.841Z,18.10
2018-06-16T21:32:38.838Z,18.00
2018-06-16T21:35:08.453Z,17.90
2018-06-16T21:37:38.247Z,17.80
2018-06-16T21:40:10.862Z,17.60
2018-06-16T21:42:39.821Z,17.50
2018-06-16T21:45:08.370Z,17.40
2018-06-16T21:47:43.009Z,17.40
2018-06-16T21:50:11.874Z,17.30
2018-06-16T22:04:16.115Z,17.00
2018-06-16T22:06:45.837Z,17.00
2018-06-16T22:09:14.377Z,16.90
2018-06-16T22:11:42.798Z,16.90
2018-06-16T22:14:11.130Z,16.80
2018-06-16T22:16:39.463Z,16.80
2018-06-16T22:19:07.809Z,16.70
2018-06-16T22:21:36.128Z,16.70
2018-06-16T22:24:04.545Z,16.70
2018-06-16T22:26:32.826Z,16.60
2018-06-16T22:29:01.205Z,16.50
2018-06-16T22:31:29.541Z,16.50
2018-06-16T22:33:57.871Z,16.50
2018-06-16T22:36:26.210Z,16.50
2018-06-16T22:38:54.513Z,16.50
2018-06-16T22:41:22.813Z,16.30
2018-06-16T22:43:51.096Z,16.30
2018-06-16T22:46:19.434Z,16.20
2018-06-16T22:48:47.812Z,16.20
2018-06-16T22:51:16.121Z,16.20
2018-06-16T22:53:44.433Z,16.20
2018-06-16T22:56:12.792Z,16.20
2018-06-16T22:58:41.106Z,16.20
2018-06-16T23:01:09.393Z,16.20
2018-06-16T23:03:37.713Z,16.20
2018-06-16T23:06:06.069Z,16.10
2018-06-16T23:08:34.377Z,16.00
2018-06-16T23:11:02.713Z,15.90
2018-06-16T23:13:31.015Z,15.80
2018-06-16T23:15:59.381Z,15.80
2018-06-16T23:18:27.677Z,15.80
2018-06-16T23:20:56.034Z,15.70
2018-06-16T23:23:24.355Z,15.70
2018-06-16T23:25:52.685Z,15.70
2018-06-16T23:28:21.001Z,15.70
2018-06-16T23:30:49.333Z,15.70
2018-06-16T23:33:17.621Z,15.70
2018-06-16T23:35:45.930Z,15.70
2018-06-16T23:38:14.288Z,15.70
2018-06-16T23:40:42.857Z,15.70
2018-06-16T23:43:11.233Z,15.70
2018-06-16T23:45:39.552Z,15.70
2018-06-16T23:48:07.889Z,15.60
2018-06-16T23:50:36.165Z,15.60
2018-06-16T23:53:04.469Z,15.50
2018-06-16T23:55:32.777Z,15.60
2018-06-16T23:58:01.093Z,15.60
